KCOU/COU METAR and TAF weather

Enter ICAO airport designator
Station Type Date Time Source
KCOU METAR 2024/04/15 09:54 UTC NOAA

KCOU 150954Z AUTO 03003KT 10SM CLR 18/11 A2988 RMK AO2 SLP111 T01830106


Station Type Date Time Source
KCOU Decoded METAR 2024/04/15 09:54 UTC NOAA

COLUMBIA REGIONAL AIRPORT, MO, United States (KCOU) 38-49N 092-13W 271M
Apr 15, 2024 - 05:54 AM EDT / 2024.04.15 0954 UTC
Wind: from the NNE (030 degrees) at 3 MPH (3 KT):0
Visibility: 10 mile(s):0
Sky conditions: clear
Temperature: 64.9 F (18.3 C)
Dew Point: 51.1 F (10.6 C)
Relative Humidity: 60%
Pressure (altimeter): 29.88 in. Hg (1011 hPa)
ob: KCOU 150954Z AUTO 03003KT 10SM CLR 18/11 A2988 RMK AO2 SLP111 T01830106
cycle: 10

Station Type Date Time Source
KCOU TAF 2024/04/15 06:42 UTC NOAA